Time;durP1;ratioP1;P1;durP2;ratioP2;P2;SDS_P1;SDS_P2;PMS_P1;PMS_P2;Temp;Humidity;BMP_temperature;BMP_pressure;BME280_temperature;BME280_humidity;BME280_pressure;Samples;Min_cycle;Max_cycle;Signal;HPM_P1;HPM_P2
2022/08/12 00:43:03;;;;;;;;;;;18.70;93.30;;;;;;5096243;28;19931;-64
2022/08/12 00:46:29;;;;;;;;;;;18.60;93.60;;;;;;5096410;28;20366;-64
2022/08/12 00:48:20;;;;;;;;;;;18.60;93.70;;;;;;5081166;28;19916;-64
2022/08/12 00:50:46;;;;;;;;;;;18.60;93.80;;;;;;5096591;28;19908;-64
2022/08/12 00:53:12;;;;;;;;;;;18.60;94.10;;;;;;5096645;28;20003;-64
2022/08/12 00:55:42;;;;;;;;;;;18.60;94.80;;;;;;5096544;28;19947;-64
2022/08/12 00:58:08;;;;;;;;;;;18.50;95.10;;;;;;5096221;28;19943;-64
2022/08/12 01:00:34;;;;;;;;;;;18.50;95.50;;;;;;5096075;28;19966;-64
2022/08/12 01:03:00;;;;;;;;;;;18.40;96.00;;;;;;5096212;28;20286;-64
2022/08/12 01:11:28;;;;;;;;;;;;;;;;;;5095846;28;20370;-64
2022/08/12 01:13:46;;;;;;;;;;;18.20;97.60;;;;;;5095736;28;19908;-64
2022/08/12 01:16:13;;;;;;;;;;;18.20;99.70;;;;;;5095894;28;19912;-65
2022/08/12 01:18:39;;;;;;;;;;;18.10;99.90;;;;;;5077508;28;20293;-64
2022/08/12 01:21:10;;;;;;;;;;;18.10;99.90;;;;;;5095771;28;19909;-64
2022/08/12 01:23:56;;;;;;;;;;;18.00;99.90;;;;;;5095778;28;19908;-64
2022/08/12 01:26:22;;;;;;;;;;;18.00;99.90;;;;;;5095631;28;19942;-64
2022/08/12 01:28:49;;;;;;;;;;;17.90;99.90;;;;;;5077643;28;19908;-64
2022/08/12 01:31:16;;;;;;;;;;;17.90;99.90;;;;;;5095810;28;19908;-64
2022/08/12 01:33:49;;;;;;;;;;;17.90;99.90;;;;;;5095796;28;19912;-64
2022/08/12 01:36:16;;;;;;;;;;;17.90;99.90;;;;;;5095729;28;19908;-64
2022/08/12 01:38:46;;;;;;;;;;;17.80;99.90;;;;;;5095675;28;19918;-64
2022/08/12 01:41:12;;;;;;;;;;;17.80;99.90;;;;;;5095649;28;20430;-64
2022/08/12 01:43:39;;;;;;;;;;;17.80;99.90;;;;;;5095713;28;19995;-64
2022/08/12 01:46:11;;;;;;;;;;;17.70;99.90;;;;;;5095553;28;19976;-64
2022/08/12 01:48:58;;;;;;;;;;;17.70;99.90;;;;;;5095270;28;19914;-64
2022/08/12 01:51:25;;;;;;;;;;;;;;;;;;5095150;28;19915;-64
2022/08/12 01:53:54;;;;;;;;;;;;;;;;;;5095442;28;19912;-64
2022/08/12 01:56:20;;;;;;;;;;;;;;;;;;5095389;28;19991;-64
2022/08/12 02:01:33;;;;;;;;;;;17.50;99.90;;;;;;5094793;28;19909;-64
2022/08/12 02:12:31;;;;;;;;;;;17.30;99.90;;;;;;5071079;28;19913;-64
2022/08/12 02:15:11;;;;;;;;;;;17.30;99.90;;;;;;5071229;28;19935;-64
2022/08/12 02:17:47;;;;;;;;;;;17.20;99.90;;;;;;5071184;28;19915;-64
2022/08/12 02:20:33;;;;;;;;;;;17.20;99.90;;;;;;5070906;28;19944;-64
2022/08/12 02:23:00;;;;;;;;;;;17.10;99.90;;;;;;5070813;28;20359;-64
2022/08/12 02:25:46;;;;;;;;;;;17.10;99.90;;;;;;5070754;28;19909;-64
2022/08/12 02:28:11;;;;;;;;;;;17.00;99.90;;;;;;5070656;28;20019;-64
2022/08/12 02:30:37;;;;;;;;;;;17.00;99.90;;;;;;5070843;28;20383;-64
2022/08/12 02:33:04;;;;;;;;;;;16.90;99.90;;;;;;5070862;28;20371;-64
2022/08/12 02:35:31;;;;;;;;;;;16.90;99.90;;;;;;5070832;28;19947;-64
2022/08/12 02:37:58;;;;;;;;;;;16.90;99.90;;;;;;5069264;28;20026;-64
2022/08/12 02:40:25;;;;;;;;;;;16.80;99.90;;;;;;5070746;28;19920;-64
2022/08/12 02:42:56;;;;;;;;;;;16.80;99.90;;;;;;5070701;28;20287;-64
2022/08/12 02:45:26;;;;;;;;;;;16.70;99.90;;;;;;5070715;28;20317;-64
2022/08/12 02:47:53;;;;;;;;;;;16.70;99.90;;;;;;5070321;28;19959;-64
2022/08/12 02:50:19;;;;;;;;;;;16.70;99.90;;;;;;5070436;28;20339;-64
2022/08/12 02:52:46;;;;;;;;;;;16.60;99.90;;;;;;5070476;28;20259;-64
2022/08/12 02:55:17;;;;;;;;;;;16.60;99.90;;;;;;5069022;28;20017;-64
2022/08/12 02:57:44;;;;;;;;;;;16.50;99.90;;;;;;5070161;28;20378;-64
2022/08/12 03:00:11;;;;;;;;;;;16.40;99.90;;;;;;5070298;28;19920;-64
2022/08/12 03:02:38;;;;;;;;;;;16.40;99.90;;;;;;5069967;28;19916;-64
2022/08/12 03:05:04;;;;;;;;;;;16.30;99.90;;;;;;5069896;28;19913;-64
2022/08/12 03:07:34;;;;;;;;;;;16.30;99.90;;;;;;5070154;28;19915;-64
2022/08/12 03:10:07;;;;;;;;;;;16.30;99.90;;;;;;5070528;28;19909;-64
2022/08/12 03:12:34;;;;;;;;;;;16.20;99.90;;;;;;5090306;28;19944;-64
2022/08/12 03:15:02;;;;;;;;;;;16.20;99.90;;;;;;5090257;28;19954;-64
2022/08/12 03:17:30;;;;;;;;;;;16.20;99.90;;;;;;5090253;28;20366;-64
2022/08/12 03:19:56;;;;;;;;;;;16.10;99.90;;;;;;5089914;28;19931;-64
2022/08/12 03:22:23;;;;;;;;;;;16.00;99.90;;;;;;5083958;28;19914;-64
2022/08/12 03:24:49;;;;;;;;;;;16.00;99.90;;;;;;5076557;28;19908;-64
2022/08/12 03:27:15;;;;;;;;;;;16.00;99.90;;;;;;5058376;28;19915;-64
2022/08/12 03:29:41;;;;;;;;;;;16.00;99.90;;;;;;5076504;28;19908;-64
2022/08/12 03:32:07;;;;;;;;;;;15.90;99.90;;;;;;5076117;28;19966;-64
2022/08/12 03:34:34;;;;;;;;;;;15.90;99.90;;;;;;5076390;28;19964;-64
2022/08/12 03:37:01;;;;;;;;;;;15.80;99.90;;;;;;5076391;28;19951;-64
2022/08/12 03:42:33;;;;;;;;;;;15.80;99.90;;;;;;5071071;28;19913;-65
2022/08/12 04:01:58;;;;;;;;;;;15.60;99.90;;;;;;5070408;28;19919;-65
2022/08/12 04:04:25;;;;;;;;;;;15.60;99.90;;;;;;5070604;28;20271;-65
2022/08/12 04:06:50;;;;;;;;;;;15.60;99.90;;;;;;5070815;28;19908;-64
2022/08/12 04:09:18;;;;;;;;;;;15.50;99.90;;;;;;5070726;28;19955;-65
2022/08/12 04:14:30;;;;;;;;;;;15.50;99.90;;;;;;5070221;28;19982;-65
2022/08/12 04:16:56;;;;;;;;;;;15.50;99.90;;;;;;5070325;28;19919;-65
2022/08/12 04:19:23;;;;;;;;;;;15.50;99.90;;;;;;5070265;28;19908;-65
2022/08/12 04:21:49;;;;;;;;;;;15.50;99.90;;;;;;5070073;28;19917;-65
2022/08/12 04:24:15;;;;;;;;;;;15.50;99.90;;;;;;5070225;28;20000;-65
2022/08/12 04:26:40;;;;;;;;;;;15.60;99.90;;;;;;5070122;28;19915;-65
2022/08/12 04:29:09;;;;;;;;;;;15.60;99.90;;;;;;5070040;28;19908;-65
2022/08/12 04:31:36;;;;;;;;;;;15.60;99.90;;;;;;5069989;28;20379;-65
2022/08/12 04:34:02;;;;;;;;;;;15.70;99.90;;;;;;5070236;28;20409;-65
2022/08/12 04:36:28;;;;;;;;;;;15.70;99.90;;;;;;5070141;28;19995;-65
2022/08/12 04:38:54;;;;;;;;;;;15.70;99.90;;;;;;5070129;28;19916;-65
2022/08/12 04:41:20;;;;;;;;;;;15.80;99.90;;;;;;5082727;28;20290;-65
2022/08/12 04:43:46;;;;;;;;;;;15.80;99.90;;;;;;5090043;28;19912;-65
2022/08/12 04:46:11;;;;;;;;;;;15.90;99.90;;;;;;5055219;28;19908;-65
2022/08/12 04:48:37;;;;;;;;;;;15.90;99.90;;;;;;5090029;28;19999;-65
2022/08/12 04:51:03;;;;;;;;;;;16.00;99.90;;;;;;5090163;28;20371;-65
2022/08/12 04:53:30;;;;;;;;;;;16.10;99.90;;;;;;5077170;28;19908;-64
2022/08/12 04:55:56;;;;;;;;;;;16.30;99.90;;;;;;5076571;28;20358;-65
2022/08/12 04:58:21;;;;;;;;;;;16.40;99.90;;;;;;5076312;28;19946;-65
2022/08/12 05:00:47;;;;;;;;;;;16.50;99.90;;;;;;5076382;28;19920;-65
2022/08/12 05:03:13;;;;;;;;;;;16.60;99.90;;;;;;5076534;28;19951;-65
2022/08/12 05:05:39;;;;;;;;;;;16.70;99.90;;;;;;5076409;28;20290;-65
2022/08/12 05:08:09;;;;;;;;;;;16.80;99.90;;;;;;5076338;28;20422;-65
2022/08/12 05:10:35;;;;;;;;;;;17.00;99.90;;;;;;5076262;28;19943;-65
2022/08/12 05:13:01;;;;;;;;;;;17.10;99.90;;;;;;5076262;28;20295;-65
2022/08/12 05:15:37;;;;;;;;;;;17.20;99.90;;;;;;5075882;28;19909;-65
2022/08/12 05:18:03;;;;;;;;;;;17.30;99.90;;;;;;5076109;28;20374;-65
2022/08/12 05:20:29;;;;;;;;;;;17.30;99.90;;;;;;5075944;28;19912;-65
2022/08/12 05:23:11;;;;;;;;;;;17.50;99.90;;;;;;5076091;28;19923;-65
2022/08/12 05:25:37;;;;;;;;;;;17.60;99.90;;;;;;5076003;28;20406;-65
2022/08/12 05:28:04;;;;;;;;;;;17.70;99.90;;;;;;5075769;28;19947;-65
2022/08/12 05:30:31;;;;;;;;;;;17.80;99.90;;;;;;5075880;28;20020;-65
2022/08/12 05:32:57;;;;;;;;;;;17.90;99.90;;;;;;5075859;28;19916;-65
2022/08/12 05:35:22;;;;;;;;;;;18.00;99.90;;;;;;5057753;28;19908;-65
2022/08/12 05:38:54;;;;;;;;;;;18.20;99.90;;;;;;5075052;28;19915;-65
2022/08/12 05:40:34;;;;;;;;;;;18.30;99.90;;;;;;5074835;28;19920;-65
2022/08/12 05:43:00;;;;;;;;;;;18.50;99.90;;;;;;5075538;28;19909;-65
2022/08/12 05:45:26;;;;;;;;;;;18.80;99.90;;;;;;5075617;28;19940;-65
2022/08/12 05:47:51;;;;;;;;;;;19.00;99.90;;;;;;5057688;28;20367;-65
2022/08/12 05:50:17;;;;;;;;;;;20.80;99.90;;;;;;5075546;28;19991;-65
2022/08/12 05:52:42;;;;;;;;;;;21.40;99.90;;;;;;5075156;28;19909;-67
2022/08/12 05:55:09;;;;;;;;;;;25.00;94.70;;;;;;5075389;28;19908;-67
2022/08/12 05:57:34;;;;;;;;;;;24.90;94.80;;;;;;5075335;28;20317;-67
2022/08/12 06:00:00;;;;;;;;;;;25.90;92.70;;;;;;5074875;28;19935;-66
2022/08/12 06:02:25;;;;;;;;;;;26.80;88.80;;;;;;5074874;28;19912;-64
2022/08/12 06:04:52;;;;;;;;;;;28.00;82.20;;;;;;5073889;28;19908;-64
2022/08/12 06:07:17;;;;;;;;;;;28.50;78.10;;;;;;5074840;28;20053;-64
2022/08/12 06:09:43;;;;;;;;;;;28.40;74.90;;;;;;5074751;28;19912;-64
2022/08/12 06:12:08;;;;;;;;;;;29.10;72.90;;;;;;5074643;28;19908;-64
2022/08/12 06:14:35;;;;;;;;;;;29.40;70.30;;;;;;5074910;28;19915;-65
2022/08/12 06:17:01;;;;;;;;;;;29.30;70.50;;;;;;5074919;28;19915;-64
2022/08/12 06:19:28;;;;;;;;;;;29.40;70.60;;;;;;5074769;28;19974;-64
2022/08/12 06:21:53;;;;;;;;;;;29.90;69.20;;;;;;5074385;28;19912;-65
2022/08/12 06:24:23;;;;;;;;;;;29.70;68.20;;;;;;5056875;28;19908;-64
2022/08/12 06:26:49;;;;;;;;;;;29.40;68.60;;;;;;5074636;28;19980;-64
2022/08/12 06:29:18;;;;;;;;;;;29.10;69.60;;;;;;5074641;28;19909;-64
2022/08/12 06:31:45;;;;;;;;;;;29.60;68.70;;;;;;5074646;28;20276;-64
2022/08/12 06:34:13;;;;;;;;;;;30.70;65.70;;;;;;5074524;28;20370;-64
2022/08/12 06:36:39;;;;;;;;;;;30.80;64.50;;;;;;5074417;28;19955;-66
2022/08/12 06:39:04;;;;;;;;;;;30.20;64.20;;;;;;5074398;28;19908;-66
2022/08/12 06:44:19;;;;;;;;;;;30.80;63.70;;;;;;5073598;28;19913;-65
2022/08/12 06:46:46;;;;;;;;;;;30.50;63.30;;;;;;5074279;28;19923;-66
2022/08/12 06:49:11;;;;;;;;;;;30.40;64.80;;;;;;5074251;28;19915;-65
2022/08/12 06:51:37;;;;;;;;;;;31.10;63.80;;;;;;5074209;28;20275;-66
2022/08/12 06:54:03;;;;;;;;;;;31.90;62.10;;;;;;5073807;28;19916;-66
2022/08/12 06:56:29;;;;;;;;;;;32.40;60.00;;;;;;5073864;28;19915;-65
2022/08/12 06:58:56;;;;;;;;;;;32.60;59.70;;;;;;5074045;28;19908;-66
2022/08/12 07:01:22;;;;;;;;;;;32.50;58.10;;;;;;5056491;28;20378;-66
2022/08/12 07:03:49;;;;;;;;;;;32.10;58.40;;;;;;5074021;28;20013;-65
2022/08/12 07:06:15;;;;;;;;;;;32.20;59.40;;;;;;5073936;28;19918;-65
2022/08/12 07:08:42;;;;;;;;;;;32.80;58.10;;;;;;5073987;28;19995;-65
2022/08/12 07:11:10;;;;;;;;;;;32.70;58.30;;;;;;5074101;28;19909;-65
2022/08/12 07:13:37;;;;;;;;;;;33.80;56.70;;;;;;5073918;28;19912;-66
2022/08/12 07:16:04;;;;;;;;;;;33.00;56.10;;;;;;5073440;28;20260;-66
2022/08/12 07:18:31;;;;;;;;;;;32.30;57.30;;;;;;5073666;28;19931;-65
2022/08/12 07:21:00;;;;;;;;;;;33.60;56.40;;;;;;5073859;28;20290;-66
2022/08/12 07:23:26;;;;;;;;;;;33.80;55.70;;;;;;5056398;28;19939;-66
2022/08/12 07:25:52;;;;;;;;;;;33.30;55.80;;;;;;5073880;28;20015;-66
2022/08/12 07:28:22;;;;;;;;;;;33.60;55.80;;;;;;5073639;28;19944;-66
2022/08/12 07:30:48;;;;;;;;;;;34.50;54.60;;;;;;5073691;28;19909;-66
2022/08/12 07:33:15;;;;;;;;;;;33.30;54.90;;;;;;5073457;28;19915;-66
2022/08/12 07:35:46;;;;;;;;;;;35.00;53.70;;;;;;5073809;28;19909;-66
2022/08/12 07:38:32;;;;;;;;;;;35.40;53.30;;;;;;5073699;28;19959;-66
2022/08/12 07:41:04;;;;;;;;;;;35.30;53.20;;;;;;5072987;28;19927;-66
2022/08/12 07:43:31;;;;;;;;;;;34.60;52.70;;;;;;5073570;28;19959;-66
2022/08/12 07:45:59;;;;;;;;;;;34.70;52.60;;;;;;5055163;28;19909;-66
2022/08/12 07:48:24;;;;;;;;;;;35.10;51.90;;;;;;5073505;28;19913;-66
2022/08/12 07:50:50;;;;;;;;;;;34.90;51.60;;;;;;5073244;28;19908;-66
2022/08/12 07:53:16;;;;;;;;;;;35.70;51.20;;;;;;5073542;28;19920;-66
2022/08/12 07:55:42;;;;;;;;;;;35.30;51.40;;;;;;5073351;28;20010;-66
2022/08/12 07:58:07;;;;;;;;;;;34.80;50.80;;;;;;5073138;28;19909;-66
2022/08/12 08:00:35;;;;;;;;;;;34.70;51.00;;;;;;5073276;28;19920;-66
2022/08/12 08:03:00;;;;;;;;;;;34.80;49.80;;;;;;5073424;28;19912;-65
2022/08/12 08:05:28;;;;;;;;;;;34.90;50.70;;;;;;5073095;28;20420;-66
2022/08/12 08:08:00;;;;;;;;;;;36.00;49.80;;;;;;5073296;28;19908;-66
2022/08/12 08:10:26;;;;;;;;;;;35.70;48.90;;;;;;5073329;28;20000;-66
2022/08/12 08:12:53;;;;;;;;;;;35.30;49.40;;;;;;5072974;28;19919;-66
2022/08/12 08:15:19;;;;;;;;;;;35.30;49.40;;;;;;5072989;28;19999;-66
2022/08/12 08:17:56;;;;;;;;;;;35.70;48.80;;;;;;5073291;28;19916;-66
2022/08/12 08:20:27;;;;;;;;;;;35.80;48.90;;;;;;5072782;28;20007;-65
2022/08/12 08:22:53;;;;;;;;;;;35.60;47.90;;;;;;5073213;28;19916;-65
2022/08/12 08:25:19;;;;;;;;;;;35.60;47.70;;;;;;5072972;28;19944;-65
2022/08/12 08:27:45;;;;;;;;;;;36.10;47.80;;;;;;5074883;28;19954;-66
2022/08/12 08:30:12;;;;;;;;;;;36.20;47.10;;;;;;5076916;28;20401;-66
2022/08/12 08:32:38;;;;;;;;;;;36.10;45.90;;;;;;5076613;28;19916;-67
2022/08/12 08:35:04;;;;;;;;;;;36.20;45.80;;;;;;5076786;28;19959;-66
2022/08/12 08:37:31;;;;;;;;;;;35.50;47.70;;;;;;5076867;28;19908;-67
2022/08/12 08:42:35;;;;;;;;;;;36.40;46.30;;;;;;5076517;28;19908;-67
2022/08/12 08:42:43;;;;;;;;;;;35.80;46.60;;;;;;5076328;28;19909;-66
2022/08/12 08:45:11;;;;;;;;;;;36.20;45.00;;;;;;5076500;28;20431;-66
2022/08/12 08:47:45;;;;;;;;;;;36.40;45.40;;;;;;5076562;28;20333;-67
2022/08/12 08:50:13;;;;;;;;;;;37.00;45.70;;;;;;5076486;28;19912;-67
2022/08/12 08:52:41;;;;;;;;;;;37.10;44.00;;;;;;5075827;28;20389;-67
2022/08/12 08:55:08;;;;;;;;;;;37.20;42.60;;;;;;5058408;28;20295;-67
2022/08/12 08:57:34;;;;;;;;;;;36.60;44.00;;;;;;5076042;28;19916;-67
2022/08/12 09:00:00;;;;;;;;;;;35.90;44.60;;;;;;5075951;28;19908;-66
2022/08/12 09:02:25;;;;;;;;;;;35.40;46.00;;;;;;5076262;28;20359;-67
2022/08/12 09:04:51;;;;;;;;;;;35.20;44.60;;;;;;5075869;28;19909;-66
2022/08/12 09:07:17;;;;;;;;;;;36.40;44.40;;;;;;5075351;28;20302;-66
2022/08/12 09:09:42;;;;;;;;;;;36.70;43.40;;;;;;5075501;28;19917;-66
2022/08/12 09:14:53;;;;;;;;;;;37.80;41.50;;;;;;5075703;28;19915;-67
2022/08/12 09:17:21;;;;;;;;;;;37.10;41.60;;;;;;5075416;28;19913;-67
2022/08/12 09:19:47;;;;;;;;;;;37.10;41.50;;;;;;5038291;28;19962;-67
2022/08/12 09:22:12;;;;;;;;;;;36.70;41.50;;;;;;5075963;28;20015;-67
2022/08/12 09:24:38;;;;;;;;;;;36.40;42.50;;;;;;5075657;28;20362;-67
2022/08/12 09:27:05;;;;;;;;;;;36.20;43.50;;;;;;5057755;28;19913;-64
2022/08/12 09:29:32;;;;;;;;;;;36.40;41.80;;;;;;5057545;28;20003;-65
2022/08/12 09:31:58;;;;;;;;;;;36.00;42.50;;;;;;5058233;28;19935;-65
2022/08/12 09:34:29;;;;;;;;;;;35.30;42.50;;;;;;5075831;28;19909;-65
2022/08/12 09:36:55;;;;;;;;;;;36.10;41.60;;;;;;5075603;28;19912;-65
2022/08/12 09:39:20;;;;;;;;;;;35.50;41.20;;;;;;5075054;28;19920;-66
2022/08/12 09:45:19;;;;;;;;;;;36.20;40.90;;;;;;5075183;28;19928;-64
2022/08/12 09:47:19;;;;;;;;;;;36.90;40.60;;;;;;5074779;28;19935;-64
2022/08/12 09:49:46;;;;;;;;;;;37.20;40.50;;;;;;5075479;28;19948;-65
2022/08/12 09:52:14;;;;;;;;;;;37.10;40.20;;;;;;5075469;28;20267;-65
2022/08/12 09:54:40;;;;;;;;;;;37.50;40.20;;;;;;5075002;28;20408;-65
2022/08/12 09:57:09;;;;;;;;;;;37.40;39.60;;;;;;5074869;28;19944;-65
2022/08/12 09:59:35;;;;;;;;;;;37.40;39.80;;;;;;5074991;28;20255;-65
2022/08/12 10:02:00;;;;;;;;;;;37.00;40.20;;;;;;5075052;28;19919;-65
2022/08/12 10:04:25;;;;;;;;;;;36.50;40.10;;;;;;5074601;28;19923;-64
2022/08/12 10:06:51;;;;;;;;;;;36.20;40.20;;;;;;5074922;28;20361;-64
2022/08/12 10:09:17;;;;;;;;;;;35.90;40.70;;;;;;5074716;28;19915;-64
2022/08/12 10:14:27;;;;;;;;;;;35.70;41.50;;;;;;5059620;28;19915;-64
2022/08/12 10:16:53;;;;;;;;;;;35.80;41.10;;;;;;5074619;28;19987;-64
2022/08/12 10:19:20;;;;;;;;;;;35.90;42.00;;;;;;5074603;28;19908;-64
2022/08/12 10:21:46;;;;;;;;;;;35.70;42.50;;;;;;5074409;28;19923;-64
2022/08/12 10:24:15;;;;;;;;;;;35.20;42.30;;;;;;5074400;28;20003;-64
2022/08/12 10:29:45;;;;;;;;;;;35.80;41.90;;;;;;5059409;28;19915;-64
2022/08/12 10:32:14;;;;;;;;;;;35.90;41.90;;;;;;5074109;28;19919;-64
2022/08/12 10:34:40;;;;;;;;;;;36.60;41.40;;;;;;5074545;28;19908;-64
2022/08/12 10:37:06;;;;;;;;;;;35.70;42.30;;;;;;5074500;28;19939;-64
2022/08/12 10:39:34;;;;;;;;;;;35.20;41.50;;;;;;5074510;28;20325;-64
2022/08/12 10:44:45;;;;;;;;;;;36.00;41.00;;;;;;5073879;28;19916;-66
2022/08/12 10:47:11;;;;;;;;;;;35.40;40.00;;;;;;5074106;28;20294;-65
2022/08/12 10:49:37;;;;;;;;;;;35.50;40.10;;;;;;5055215;28;19963;-65
2022/08/12 10:52:03;;;;;;;;;;;35.10;41.30;;;;;;5074325;28;19913;-65
2022/08/12 10:54:28;;;;;;;;;;;34.60;41.50;;;;;;5074314;28;20286;-65
2022/08/12 10:56:56;;;;;;;;;;;34.40;39.40;;;;;;5074308;28;19908;-64
2022/08/12 10:59:22;;;;;;;;;;;34.00;40.60;;;;;;5072612;28;19912;-65
2022/08/12 11:01:49;;;;;;;;;;;33.50;43.30;;;;;;5073283;28;19916;-64
2022/08/12 11:04:15;;;;;;;;;;;33.60;42.80;;;;;;5074122;28;19908;-63
2022/08/12 11:06:43;;;;;;;;;;;33.00;42.80;;;;;;5073933;28;19974;-63
2022/08/12 11:09:09;;;;;;;;;;;33.20;43.50;;;;;;5073668;28;20405;-63
2022/08/12 11:11:35;;;;;;;;;;;33.40;42.90;;;;;;5055882;28;19908;-63
2022/08/12 11:14:00;;;;;;;;;;;33.00;42.10;;;;;;5073700;28;19958;-63
2022/08/12 11:16:31;;;;;;;;;;;32.60;42.50;;;;;;5073966;28;19936;-64
2022/08/12 11:18:56;;;;;;;;;;;32.30;42.80;;;;;;5073429;28;19947;-64
2022/08/12 11:21:22;;;;;;;;;;;31.80;42.90;;;;;;5073892;28;19962;-64
2022/08/12 11:23:47;;;;;;;;;;;32.10;42.90;;;;;;5073586;28;19908;-64
2022/08/12 11:26:13;;;;;;;;;;;32.30;42.90;;;;;;5073930;28;19908;-64
2022/08/12 11:28:38;;;;;;;;;;;32.70;42.60;;;;;;5073323;28;19913;-64
2022/08/12 11:31:05;;;;;;;;;;;32.70;41.90;;;;;;5073855;28;19909;-64
2022/08/12 11:33:31;;;;;;;;;;;32.60;41.60;;;;;;5073599;28;19973;-64
2022/08/12 11:36:02;;;;;;;;;;;32.90;42.40;;;;;;5073736;28;19938;-64
2022/08/12 11:38:28;;;;;;;;;;;32.60;41.40;;;;;;5073422;28;19971;-64
2022/08/12 11:40:53;;;;;;;;;;;31.80;41.30;;;;;;5073057;28;19920;-64
2022/08/12 11:43:19;;;;;;;;;;;31.90;42.20;;;;;;5073495;28;19914;-63
2022/08/12 11:45:45;;;;;;;;;;;31.80;42.00;;;;;;5073677;28;20386;-64
2022/08/12 11:48:10;;;;;;;;;;;32.00;40.90;;;;;;5055845;28;19962;-64
2022/08/12 11:50:36;;;;;;;;;;;31.70;39.80;;;;;;5073357;28;19916;-64
2022/08/12 11:53:01;;;;;;;;;;;31.90;40.50;;;;;;5073336;28;19999;-65
2022/08/12 11:55:28;;;;;;;;;;;32.00;40.90;;;;;;5073411;28;20340;-65
2022/08/12 11:57:54;;;;;;;;;;;31.90;41.80;;;;;;5073249;28;19912;-66
2022/08/12 12:00:20;;;;;;;;;;;31.40;41.70;;;;;;5073464;28;19908;-64
2022/08/12 12:02:46;;;;;;;;;;;31.20;42.30;;;;;;5075438;28;20378;-65
2022/08/12 12:05:11;;;;;;;;;;;31.00;42.70;;;;;;5077230;28;19919;-64
2022/08/12 12:07:38;;;;;;;;;;;31.20;42.60;;;;;;5077231;28;19924;-64
2022/08/12 12:10:04;;;;;;;;;;;31.40;42.40;;;;;;5077623;28;20367;-65
2022/08/12 12:12:29;;;;;;;;;;;31.20;43.80;;;;;;5077068;28;19922;-64
2022/08/12 12:14:55;;;;;;;;;;;31.40;43.60;;;;;;5077444;28;19908;-64
2022/08/12 12:17:22;;;;;;;;;;;31.80;43.80;;;;;;5077309;28;19909;-66
2022/08/12 12:19:47;;;;;;;;;;;31.60;42.20;;;;;;5077236;28;20367;-64
2022/08/12 12:22:13;;;;;;;;;;;31.60;44.10;;;;;;5076333;28;19924;-65
2022/08/12 12:24:42;;;;;;;;;;;32.20;43.60;;;;;;5076733;28;20328;-64
2022/08/12 12:27:07;;;;;;;;;;;31.80;42.00;;;;;;5077254;28;20008;-64
2022/08/12 12:29:33;;;;;;;;;;;31.50;42.10;;;;;;5076756;28;20354;-65
2022/08/12 12:31:58;;;;;;;;;;;31.40;41.50;;;;;;5076532;28;20026;-64
2022/08/12 12:34:24;;;;;;;;;;;31.30;42.40;;;;;;5076699;28;20299;-64
2022/08/12 12:36:49;;;;;;;;;;;31.50;43.00;;;;;;5076672;28;20003;-64
2022/08/12 12:39:15;;;;;;;;;;;31.20;43.20;;;;;;5076466;28;19915;-64
2022/08/12 12:41:40;;;;;;;;;;;31.20;43.90;;;;;;5058297;28;20000;-63
2022/08/12 12:44:06;;;;;;;;;;;31.20;43.80;;;;;;5076556;28;19995;-64
2022/08/12 12:46:32;;;;;;;;;;;31.70;43.90;;;;;;5076476;28;19908;-63
2022/08/12 12:48:57;;;;;;;;;;;31.80;43.40;;;;;;5076490;28;19915;-63
2022/08/12 12:51:23;;;;;;;;;;;31.90;42.90;;;;;;5076660;28;19909;-64
2022/08/12 12:53:49;;;;;;;;;;;31.60;42.60;;;;;;5076437;28;19909;-63
2022/08/12 12:56:16;;;;;;;;;;;31.60;42.70;;;;;;5076591;28;20267;-63
2022/08/12 12:58:42;;;;;;;;;;;31.80;42.10;;;;;;5076542;28;19909;-63
2022/08/12 13:01:08;;;;;;;;;;;31.80;42.40;;;;;;5076464;28;19917;-63
2022/08/12 13:03:34;;;;;;;;;;;31.50;42.90;;;;;;5076423;28;19915;-63
2022/08/12 13:06:00;;;;;;;;;;;31.40;42.80;;;;;;5076393;28;19908;-63
2022/08/12 13:08:28;;;;;;;;;;;31.60;43.00;;;;;;5076096;28;20073;-63
2022/08/12 13:10:54;;;;;;;;;;;31.50;42.90;;;;;;5076322;28;20039;-63
2022/08/12 13:13:20;;;;;;;;;;;31.40;43.50;;;;;;5075534;28;20394;-64
2022/08/12 13:15:48;;;;;;;;;;;31.70;43.40;;;;;;5076279;28;19920;-64
2022/08/12 13:18:14;;;;;;;;;;;31.90;44.10;;;;;;5076120;28;20003;-64
2022/08/12 13:20:42;;;;;;;;;;;32.00;43.40;;;;;;5076088;28;20025;-64
2022/08/12 13:23:08;;;;;;;;;;;32.10;43.20;;;;;;5076071;28;20278;-64
2022/08/12 13:25:33;;;;;;;;;;;32.20;42.60;;;;;;5075875;28;19908;-64
2022/08/12 13:27:59;;;;;;;;;;;31.90;43.00;;;;;;5075775;28;20370;-64
2022/08/12 13:30:25;;;;;;;;;;;31.60;43.50;;;;;;5075706;28;19959;-63
2022/08/12 13:32:54;;;;;;;;;;;31.70;43.10;;;;;;5075968;28;20040;-64
2022/08/12 13:35:19;;;;;;;;;;;31.60;41.80;;;;;;5075885;28;19909;-64
2022/08/12 13:37:49;;;;;;;;;;;31.60;41.80;;;;;;5075837;28;19962;-64
2022/08/12 13:40:14;;;;;;;;;;;31.50;42.30;;;;;;5057819;28;19923;-64
2022/08/12 13:42:40;;;;;;;;;;;31.30;42.70;;;;;;5057554;28;20007;-64
2022/08/12 13:45:06;;;;;;;;;;;31.20;43.30;;;;;;5075795;28;20431;-63
2022/08/12 13:47:54;;;;;;;;;;;31.30;43.10;;;;;;5075360;28;19909;-63
2022/08/12 13:50:20;;;;;;;;;;;31.30;43.40;;;;;;5075311;28;19924;-63
2022/08/12 13:52:46;;;;;;;;;;;31.60;43.30;;;;;;5075248;28;19920;-63
2022/08/12 13:55:11;;;;;;;;;;;31.40;42.80;;;;;;5075504;28;19912;-63
2022/08/12 13:57:42;;;;;;;;;;;31.40;43.00;;;;;;5075458;28;19958;-64
2022/08/12 14:00:08;;;;;;;;;;;31.30;43.50;;;;;;5074965;28;19914;-63
2022/08/12 14:02:35;;;;;;;;;;;31.30;43.10;;;;;;5075214;28;20094;-63
2022/08/12 14:05:01;;;;;;;;;;;31.20;43.10;;;;;;5075213;28;19999;-64
2022/08/12 14:07:26;;;;;;;;;;;31.20;43.30;;;;;;5057025;28;20294;-64
2022/08/12 14:12:38;;;;;;;;;;;31.30;43.80;;;;;;5074470;28;19951;-63
2022/08/12 14:15:06;;;;;;;;;;;31.50;43.30;;;;;;5056824;28;20386;-64
2022/08/12 14:17:31;;;;;;;;;;;31.50;42.90;;;;;;5074979;28;19908;-63
2022/08/12 14:20:12;;;;;;;;;;;31.40;42.90;;;;;;5074851;28;19951;-63
2022/08/12 14:22:37;;;;;;;;;;;31.70;42.90;;;;;;5074571;28;19912;-63
2022/08/12 14:25:03;;;;;;;;;;;31.50;42.30;;;;;;5073963;28;19916;-64
2022/08/12 14:27:28;;;;;;;;;;;31.50;42.60;;;;;;5074726;28;19908;-63
2022/08/12 14:29:54;;;;;;;;;;;31.90;43.00;;;;;;5074675;28;19912;-64
2022/08/12 14:32:20;;;;;;;;;;;31.60;43.00;;;;;;5074506;28;20378;-65
2022/08/12 14:34:47;;;;;;;;;;;31.70;43.00;;;;;;5074400;28;19913;-64
2022/08/12 14:37:13;;;;;;;;;;;31.60;42.80;;;;;;5074626;28;19956;-64
2022/08/12 14:39:39;;;;;;;;;;;31.70;43.80;;;;;;5074575;28;19948;-64
2022/08/12 14:42:04;;;;;;;;;;;31.50;43.30;;;;;;5074042;28;19944;-64
2022/08/12 14:44:30;;;;;;;;;;;31.80;44.20;;;;;;5074565;28;20003;-64
2022/08/12 14:46:56;;;;;;;;;;;32.10;43.50;;;;;;5056674;28;19912;-64
2022/08/12 14:49:23;;;;;;;;;;;32.00;42.90;;;;;;5074338;28;19966;-65
2022/08/12 14:51:48;;;;;;;;;;;31.80;43.70;;;;;;5074066;28;19956;-64
2022/08/12 14:54:14;;;;;;;;;;;31.80;43.90;;;;;;5074039;28;19955;-64
2022/08/12 14:56:40;;;;;;;;;;;31.70;43.60;;;;;;5073908;28;19912;-65
2022/08/12 15:01:51;;;;;;;;;;;31.70;44.30;;;;;;5073685;28;19917;-64
2022/08/12 15:04:27;;;;;;;;;;;31.40;44.60;;;;;;5073885;28;19916;-64
2022/08/12 15:06:53;;;;;;;;;;;31.60;44.40;;;;;;5074171;28;20003;-64
2022/08/12 15:09:19;;;;;;;;;;;31.70;44.10;;;;;;5074160;28;19920;-64
2022/08/12 15:11:46;;;;;;;;;;;31.70;43.80;;;;;;5073848;28;19970;-64
2022/08/12 15:14:12;;;;;;;;;;;31.70;44.70;;;;;;5073812;28;19912;-64
2022/08/12 15:16:37;;;;;;;;;;;31.80;44.60;;;;;;5074049;28;19957;-64
2022/08/12 15:19:03;;;;;;;;;;;31.80;43.90;;;;;;5073990;28;19909;-64
2022/08/12 15:21:28;;;;;;;;;;;31.60;44.20;;;;;;5073638;28;20389;-64
2022/08/12 15:23:54;;;;;;;;;;;31.60;44.10;;;;;;5073883;28;19909;-64
2022/08/12 15:26:19;;;;;;;;;;;31.60;43.60;;;;;;5073686;28;19908;-64
2022/08/12 15:28:45;;;;;;;;;;;31.40;43.80;;;;;;5073615;28;20374;-64
2022/08/12 15:31:12;;;;;;;;;;;31.30;44.50;;;;;;5073842;28;19943;-64
2022/08/12 15:33:38;;;;;;;;;;;31.20;44.40;;;;;;5073762;28;20321;-64
2022/08/12 15:36:06;;;;;;;;;;;31.30;44.90;;;;;;5073416;28;19908;-64
2022/08/12 15:38:31;;;;;;;;;;;31.50;44.00;;;;;;5073779;28;19915;-64
2022/08/12 15:40:58;;;;;;;;;;;31.70;44.40;;;;;;5073316;28;19921;-64
2022/08/12 15:43:25;;;;;;;;;;;31.60;44.00;;;;;;5073448;28;20003;-64
2022/08/12 15:45:51;;;;;;;;;;;31.50;43.90;;;;;;5073710;28;20321;-64
2022/08/12 15:48:16;;;;;;;;;;;31.40;44.20;;;;;;5073630;28;19913;-64
2022/08/12 15:50:42;;;;;;;;;;;31.30;44.30;;;;;;5073423;28;19946;-64
2022/08/12 15:53:12;;;;;;;;;;;31.30;45.00;;;;;;5073414;28;19952;-64
2022/08/12 15:55:40;;;;;;;;;;;31.30;44.40;;;;;;5055393;28;19916;-64
2022/08/12 15:58:05;;;;;;;;;;;31.10;44.60;;;;;;5073637;28;20389;-64
2022/08/12 16:00:36;;;;;;;;;;;31.10;44.70;;;;;;5073263;28;19913;-64
2022/08/12 16:03:03;;;;;;;;;;;31.30;44.90;;;;;;5073566;28;20367;-64